METAR Data
IDs: Format: Raw Decoded Include TAF

Data at: 1530 UTC 18 Aug 2019

PAZK 181456Z AUTO 32004KT 10SM OVC038 02/M02 A3020 RMK AO2 SLP259 T00221017 58018 FZRANO
PAZK 181356Z AUTO 02004KT 10SM SCT040 02/M03 A3023 RMK AO2 SLP267 T00171028 FZRANO
PAZK 181256Z AUTO 36004KT 10SM OVC042 02/M02 A3025 RMK AO2 SLP274 T00221017 FZRANO
PAZK 181156Z AUTO VRB03KT 10SM OVC042 02/M02 A3026 RMK AO2 SLP279 70001 T00221017 10056 20011 58008 FZRANO
PAZK 181056Z AUTO 04004KT 10SM SCT040 02/M02 A3029 RMK AO2 SLP287 T00171017 FZRANO
PAZK 180956Z AUTO 34009KT 10SM BKN065 03/M01 A3028 RMK AO2 SLP285 T00281006
PAZK 180856Z AUTO 35005KT 10SM SCT065 03/M01 A3029 RMK AO2 SLP287 T00281006 57002
PAZK 180756Z AUTO 35006KT 10SM CLR 03/00 A3029 RMK AO2 SLP291 T00330000 401220033
PAZK 180656Z AUTO 36007KT 10SM FEW065 04/M01 A3029 RMK AO2 SLP288 T00441006
PAZK 180556Z AUTO 35005KT 10SM BKN060 06/M01 A3029 RMK AO2 SLP289 T00561006 10122 20056 51003
PAZK 180356Z AUTO 03007KT 10SM CLR 10/M03 A3029 RMK AO2 SLP286 T01001028
PAZK 180256Z AUTO 04012G17KT 10SM CLR 11/M04 A3028 RMK AO2 SLP283 T01111039 58006
PAZK 180156Z AUTO 01011G16KT 10SM CLR 12/M04 A3029 RMK AO2 SLP285 T01221039
PAZK 180056Z AUTO 01013G18KT 10SM CLR 12/M05 A3030 RMK AO2 SLP289 T01221050
PAZK 172356Z AUTO 02008G18KT 10SM CLR 12/M03 A3030 RMK AO2 SLP290 60001 T01221033 10122 20078 53002
PAZK 172256Z AUTO 36011G18KT 10SM CLR 12/M04 A3030 RMK AO2 SLP289 T01171039
PAZK 172156Z AUTO 01010G14KT 9SM FEW055 12/M01 A3030 RMK AO2 SLP285 T01171011
PAZK 172056Z AUTO 02011G17KT 10SM FEW055 11/01 A3030 RMK AO2 SLP285 60001 T01110006 50005
PAZK 171956Z AUTO 36006G15KT 10SM SCT037 09/01 A3030 RMK AO2 SLP287 T00890011
PAZK 171856Z AUTO 01008G14KT 10SM SCT038 09/01 A3029 RMK AO2 SLP283 P0001 T00940011
PAZK 171756Z AUTO 08005KT 10SM SCT037 08/02 A3028 RMK AO2 SLP280 T00830017 10083 20033 51019
PAZK 171656Z AUTO 01006KT 10SM CLR 07/01 A3027 RMK AO2 SLP280 T00720006
PAZK 171556Z AUTO 11004KT 10SM BKN060 05/M01 A3026 RMK AO2 SLP274 T00501006
PAZK 171456Z AUTO 33012G17KT 10SM BKN055 OVC065 05/M01 A3022 RMK AO2 SLP255 T00501006 52013
PAZK 171356Z AUTO 33013KT 10SM BKN060 04/M01 A3022 RMK AO2 SLP251 T00441006
PAZK 171256Z AUTO 33016G25KT 10SM CLR 04/M01 A3018 RMK AO2 SLP240 T00441006
PAZK 171156Z AUTO 04004KT 10SM SCT070 04/01 A3018 RMK AO2 RAE26 SLP240 P0001 60018 70018 T00390011 10089 20039 51017
PAZK 171056Z AUTO 36007KT 10SM -RA OVC055 05/03 A3017 RMK AO2 WSHFT 1000 SLP232 P0003 T00500028
PAZK 171014Z AUTO 33012G18KT 10SM -RA FEW013 SCT018 OVC037 06/03 A3016 RMK AO2 WSHFT 1000 P0002
PAZK 171004Z AUTO 33011G19KT 10SM RA FEW009 BKN020 OVC035 07/04 A3017 RMK AO2 P0002
PAZK 170956Z AUTO 04010G15KT 6SM RA BR SCT012 BKN020 OVC037 07/05 A3016 RMK AO2 SLP231 P0010 T00670050
PAZK 170947Z AUTO 05003KT 3SM RA BR FEW004 BKN026 OVC039 07/07 A3016 RMK AO2 P0007
PAZK 170939Z AUTO 13004KT 2SM RA BR FEW025 BKN036 OVC044 08/07 A3015 RMK AO2 P0005
PAZK 170936Z AUTO 13004KT 3SM RA BR BKN029 OVC038 08/07 A3015 RMK AO2 P0004
PAZK 170856Z AUTO 36007G15KT 5SM -RA BR FEW011 SCT016 OVC041 08/06 A3012 RMK AO2 RAB15 SLP215 P0004 60004 T00780061 53004
PAZK 170815Z AUTO 05006KT 10SM -RA BKN016 OVC021 09/07 A3009 RMK AO2 RAB15 P0000
PAZK 170756Z AUTO 06005KT 10SM OVC012 09/07 A3008 RMK AO2 SLP201 T00890072 401890083
PAZK 170656Z AUTO 04004KT 10SM OVC012 08/07 A3008 RMK AO2 SLP202 T00830072
PAZK 170637Z AUTO 03004KT 10SM BKN014 OVC065 08/07 A3009 RMK AO2
PAZK 170617Z AUTO 05005KT 10SM FEW006 SCT014 OVC065 08/07 A3010 RMK AO2
PAZK 170556Z AUTO 05005KT 10SM FEW006 BKN012 OVC065 09/07 A3011 RMK AO2 SLP214 T00890072 10178 20089 55003
PAZK 170552Z AUTO 05006KT 10SM BKN012 OVC065 09/07 A3011 RMK AO2
PAZK 170543Z AUTO 02005KT 10SM SCT012 OVC065 09/07 A3012 RMK AO2
PAZK 170528Z AUTO 02007KT 10SM SCT007 BKN010 OVC070 09/07 A3012 RMK AO2
PAZK 170511Z AUTO 02008KT 10SM SCT008 OVC065 09/07 A3012 RMK AO2
PAZK 170456Z AUTO 36012KT 10SM OVC065 09/08 A3012 RMK AO2 SLP218 T00940078
PAZK 170356Z AUTO 35011G17KT 10SM OVC060 11/08 A3012 RMK AO2 SLP218 T01110083